sensor_id;sensor_type;location;lat;lon;timestamp;P1;durP1;ratioP1;P2;durP2;ratioP2
21624;SDS011;10974;51.034;3.744;2023-01-19T04:19:15;9.20;;;4.83;;
21624;SDS011;10974;51.034;3.744;2023-01-19T04:21:41;8.93;;;5.00;;
21624;SDS011;10974;51.034;3.744;2023-01-19T04:24:08;10.10;;;4.97;;
21624;SDS011;10974;51.034;3.744;2023-01-19T04:26:34;10.60;;;5.37;;
21624;SDS011;10974;51.034;3.744;2023-01-19T04:29:00;11.50;;;4.90;;
21624;SDS011;10974;51.034;3.744;2023-01-19T04:31:26;13.00;;;4.93;;
21624;SDS011;10974;51.034;3.744;2023-01-19T04:33:54;12.60;;;4.80;;
21624;SDS011;10974;51.034;3.744;2023-01-19T04:36:20;9.77;;;4.87;;
21624;SDS011;10974;51.034;3.744;2023-01-19T04:38:46;8.80;;;5.00;;
21624;SDS011;10974;51.034;3.744;2023-01-19T04:41:13;8.53;;;4.63;;
21624;SDS011;10974;51.034;3.744;2023-01-19T04:43:39;8.40;;;4.70;;
21624;SDS011;10974;51.034;3.744;2023-01-19T04:46:05;8.00;;;5.20;;
21624;SDS011;10974;51.034;3.744;2023-01-19T04:48:31;8.90;;;5.13;;
21624;SDS011;10974;51.034;3.744;2023-01-19T04:50:58;11.87;;;5.60;;
21624;SDS011;10974;51.034;3.744;2023-01-19T04:53:24;12.00;;;5.40;;
21624;SDS011;10974;51.034;3.744;2023-01-19T04:55:53;13.83;;;5.60;;
21624;SDS011;10974;51.034;3.744;2023-01-19T04:58:19;10.40;;;6.00;;
21624;SDS011;10974;51.034;3.744;2023-01-19T05:00:45;12.00;;;5.70;;
21624;SDS011;10974;51.034;3.744;2023-01-19T05:03:11;11.80;;;5.60;;
21624;SDS011;10974;51.034;3.744;2023-01-19T05:05:37;8.63;;;5.13;;
21624;SDS011;10974;51.034;3.744;2023-01-19T05:08:04;10.40;;;4.50;;
21624;SDS011;10974;51.034;3.744;2023-01-19T05:10:30;9.03;;;6.03;;
21624;SDS011;10974;51.034;3.744;2023-01-19T05:12:56;8.40;;;5.20;;
21624;SDS011;10974;51.034;3.744;2023-01-19T05:15:22;11.60;;;5.10;;
21624;SDS011;10974;51.034;3.744;2023-01-19T05:17:48;6.83;;;5.00;;
21624;SDS011;10974;51.034;3.744;2023-01-19T05:20:14;10.60;;;5.47;;
21624;SDS011;10974;51.034;3.744;2023-01-19T05:22:41;9.77;;;5.00;;
21624;SDS011;10974;51.034;3.744;2023-01-19T05:25:07;11.43;;;5.40;;
21624;SDS011;10974;51.034;3.744;2023-01-19T05:27:34;12.40;;;5.50;;
21624;SDS011;10974;51.034;3.744;2023-01-19T05:30:00;8.93;;;5.77;;
21624;SDS011;10974;51.034;3.744;2023-01-19T05:32:28;10.07;;;5.07;;
21624;SDS011;10974;51.034;3.744;2023-01-19T05:34:54;10.83;;;5.30;;
21624;SDS011;10974;51.034;3.744;2023-01-19T05:37:20;12.10;;;5.50;;
21624;SDS011;10974;51.034;3.744;2023-01-19T05:39:46;13.47;;;5.90;;
21624;SDS011;10974;51.034;3.744;2023-01-19T05:42:12;12.23;;;6.13;;
21624;SDS011;10974;51.034;3.744;2023-01-19T05:44:38;8.13;;;5.40;;
21624;SDS011;10974;51.034;3.744;2023-01-19T05:47:05;17.33;;;5.93;;
21624;SDS011;10974;51.034;3.744;2023-01-19T05:49:31;12.50;;;6.40;;
21624;SDS011;10974;51.034;3.744;2023-01-19T05:51:57;8.67;;;6.40;;
21624;SDS011;10974;51.034;3.744;2023-01-19T05:54:23;9.50;;;6.20;;
21624;SDS011;10974;51.034;3.744;2023-01-19T05:56:49;16.40;;;7.13;;
21624;SDS011;10974;51.034;3.744;2023-01-19T05:59:15;12.47;;;7.10;;
21624;SDS011;10974;51.034;3.744;2023-01-19T06:01:47;11.27;;;7.63;;
21624;SDS011;10974;51.034;3.744;2023-01-19T06:04:14;13.93;;;6.10;;
21624;SDS011;10974;51.034;3.744;2023-01-19T06:06:40;13.03;;;6.50;;
21624;SDS011;10974;51.034;3.744;2023-01-19T06:09:06;12.57;;;6.50;;
21624;SDS011;10974;51.034;3.744;2023-01-19T06:11:32;10.90;;;5.30;;
21624;SDS011;10974;51.034;3.744;2023-01-19T06:13:58;13.93;;;7.60;;
21624;SDS011;10974;51.034;3.744;2023-01-19T06:16:24;11.03;;;6.13;;
21624;SDS011;10974;51.034;3.744;2023-01-19T06:18:50;13.03;;;5.97;;
21624;SDS011;10974;51.034;3.744;2023-01-19T06:21:16;12.30;;;6.80;;
21624;SDS011;10974;51.034;3.744;2023-01-19T06:23:42;15.07;;;7.10;;
21624;SDS011;10974;51.034;3.744;2023-01-19T06:26:08;14.27;;;7.47;;
21624;SDS011;10974;51.034;3.744;2023-01-19T06:28:34;16.20;;;5.60;;
21624;SDS011;10974;51.034;3.744;2023-01-19T06:31:00;9.27;;;5.70;;
21624;SDS011;10974;51.034;3.744;2023-01-19T06:33:27;17.13;;;7.53;;
21624;SDS011;10974;51.034;3.744;2023-01-19T06:35:54;9.10;;;6.03;;
21624;SDS011;10974;51.034;3.744;2023-01-19T06:38:20;10.93;;;7.03;;
21624;SDS011;10974;51.034;3.744;2023-01-19T06:40:55;13.93;;;6.97;;
21624;SDS011;10974;51.034;3.744;2023-01-19T06:43:27;13.20;;;6.83;;
21624;SDS011;10974;51.034;3.744;2023-01-19T06:45:53;11.13;;;6.27;;
21624;SDS011;10974;51.034;3.744;2023-01-19T06:48:20;14.53;;;7.13;;
21624;SDS011;10974;51.034;3.744;2023-01-19T06:50:46;14.33;;;7.00;;
21624;SDS011;10974;51.034;3.744;2023-01-19T06:53:13;11.40;;;6.67;;
21624;SDS011;10974;51.034;3.744;2023-01-19T06:55:41;7.80;;;5.33;;
21624;SDS011;10974;51.034;3.744;2023-01-19T06:58:07;14.30;;;6.10;;
21624;SDS011;10974;51.034;3.744;2023-01-19T07:00:34;12.80;;;6.37;;
21624;SDS011;10974;51.034;3.744;2023-01-19T07:03:00;14.73;;;7.13;;
21624;SDS011;10974;51.034;3.744;2023-01-19T07:05:26;8.43;;;5.70;;
21624;SDS011;10974;51.034;3.744;2023-01-19T07:07:53;9.33;;;5.80;;
21624;SDS011;10974;51.034;3.744;2023-01-19T07:10:19;16.23;;;6.80;;
21624;SDS011;10974;51.034;3.744;2023-01-19T07:12:45;16.40;;;6.10;;
21624;SDS011;10974;51.034;3.744;2023-01-19T07:15:12;13.27;;;6.40;;
21624;SDS011;10974;51.034;3.744;2023-01-19T07:17:38;13.07;;;7.00;;
21624;SDS011;10974;51.034;3.744;2023-01-19T07:20:06;10.37;;;5.87;;
21624;SDS011;10974;51.034;3.744;2023-01-19T07:22:33;13.43;;;8.27;;
21624;SDS011;10974;51.034;3.744;2023-01-19T07:24:59;11.50;;;6.90;;
21624;SDS011;10974;51.034;3.744;2023-01-19T07:27:25;18.47;;;11.60;;
21624;SDS011;10974;51.034;3.744;2023-01-19T07:29:52;12.53;;;6.83;;
21624;SDS011;10974;51.034;3.744;2023-01-19T07:32:18;14.57;;;8.67;;
21624;SDS011;10974;51.034;3.744;2023-01-19T07:34:44;12.93;;;6.80;;
21624;SDS011;10974;51.034;3.744;2023-01-19T07:37:10;13.97;;;7.37;;
21624;SDS011;10974;51.034;3.744;2023-01-19T07:39:36;19.00;;;9.27;;
21624;SDS011;10974;51.034;3.744;2023-01-19T07:42:02;14.77;;;7.30;;
21624;SDS011;10974;51.034;3.744;2023-01-19T07:44:28;12.93;;;7.90;;
21624;SDS011;10974;51.034;3.744;2023-01-19T07:46:54;14.37;;;9.00;;
21624;SDS011;10974;51.034;3.744;2023-01-19T07:49:20;12.30;;;7.00;;
21624;SDS011;10974;51.034;3.744;2023-01-19T07:51:46;13.97;;;7.50;;
21624;SDS011;10974;51.034;3.744;2023-01-19T07:54:12;13.47;;;7.07;;
21624;SDS011;10974;51.034;3.744;2023-01-19T07:56:38;14.53;;;7.90;;
21624;SDS011;10974;51.034;3.744;2023-01-19T07:59:05;15.47;;;7.50;;
21624;SDS011;10974;51.034;3.744;2023-01-19T08:01:33;14.77;;;7.50;;
21624;SDS011;10974;51.034;3.744;2023-01-19T08:03:59;13.63;;;8.23;;
21624;SDS011;10974;51.034;3.744;2023-01-19T08:06:30;16.40;;;8.07;;
21624;SDS011;10974;51.034;3.744;2023-01-19T08:08:57;15.43;;;8.80;;
21624;SDS011;10974;51.034;3.744;2023-01-19T08:11:23;21.30;;;8.00;;
21624;SDS011;10974;51.034;3.744;2023-01-19T08:13:49;14.77;;;7.50;;
21624;SDS011;10974;51.034;3.744;2023-01-19T08:16:15;19.60;;;8.10;;
21624;SDS011;10974;51.034;3.744;2023-01-19T08:18:43;15.97;;;8.07;;
21624;SDS011;10974;51.034;3.744;2023-01-19T08:21:09;10.33;;;6.50;;
21624;SDS011;10974;51.034;3.744;2023-01-19T08:23:36;12.30;;;7.23;;
21624;SDS011;10974;51.034;3.744;2023-01-19T08:26:02;12.07;;;6.13;;
21624;SDS011;10974;51.034;3.744;2023-01-19T08:28:41;14.67;;;8.77;;
21624;SDS011;10974;51.034;3.744;2023-01-19T08:31:08;10.63;;;6.37;;
21624;SDS011;10974;51.034;3.744;2023-01-19T08:33:34;12.20;;;5.47;;
21624;SDS011;10974;51.034;3.744;2023-01-19T08:36:00;13.00;;;5.90;;
21624;SDS011;10974;51.034;3.744;2023-01-19T08:38:26;10.40;;;5.70;;
21624;SDS011;10974;51.034;3.744;2023-01-19T08:40:52;10.20;;;5.60;;
21624;SDS011;10974;51.034;3.744;2023-01-19T08:43:18;8.60;;;5.43;;
21624;SDS011;10974;51.034;3.744;2023-01-19T08:45:45;7.15;;;4.70;;
21624;SDS011;10974;51.034;3.744;2023-01-19T08:48:15;6.43;;;3.63;;
21624;SDS011;10974;51.034;3.744;2023-01-19T08:50:44;5.20;;;3.03;;
21624;SDS011;10974;51.034;3.744;2023-01-19T08:53:10;4.37;;;3.20;;
21624;SDS011;10974;51.034;3.744;2023-01-19T08:55:36;8.70;;;3.20;;
21624;SDS011;10974;51.034;3.744;2023-01-19T08:58:03;8.97;;;4.10;;
21624;SDS011;10974;51.034;3.744;2023-01-19T09:00:30;11.10;;;4.73;;
21624;SDS011;10974;51.034;3.744;2023-01-19T09:03:02;8.93;;;4.53;;
21624;SDS011;10974;51.034;3.744;2023-01-19T09:05:31;6.03;;;4.70;;
21624;SDS011;10974;51.034;3.744;2023-01-19T09:08:01;8.23;;;5.07;;
21624;SDS011;10974;51.034;3.744;2023-01-19T09:10:27;11.23;;;4.70;;
21624;SDS011;10974;51.034;3.744;2023-01-19T09:13:00;10.03;;;5.13;;
21624;SDS011;10974;51.034;3.744;2023-01-19T09:15:28;10.03;;;5.27;;
21624;SDS011;10974;51.034;3.744;2023-01-19T09:17:54;8.90;;;4.47;;
21624;SDS011;10974;51.034;3.744;2023-01-19T09:20:20;12.80;;;5.30;;
21624;SDS011;10974;51.034;3.744;2023-01-19T09:22:47;10.33;;;5.40;;
21624;SDS011;10974;51.034;3.744;2023-01-19T09:25:13;9.67;;;5.00;;
21624;SDS011;10974;51.034;3.744;2023-01-19T09:27:39;11.53;;;5.33;;
21624;SDS011;10974;51.034;3.744;2023-01-19T09:30:05;11.40;;;5.93;;
21624;SDS011;10974;51.034;3.744;2023-01-19T09:32:35;12.93;;;6.30;;
21624;SDS011;10974;51.034;3.744;2023-01-19T09:35:01;13.80;;;7.20;;
21624;SDS011;10974;51.034;3.744;2023-01-19T09:37:27;17.37;;;7.80;;
21624;SDS011;10974;51.034;3.744;2023-01-19T09:39:53;14.20;;;7.30;;
21624;SDS011;10974;51.034;3.744;2023-01-19T09:42:24;13.73;;;7.47;;
21624;SDS011;10974;51.034;3.744;2023-01-19T09:44:52;16.57;;;7.23;;
21624;SDS011;10974;51.034;3.744;2023-01-19T09:47:22;14.77;;;6.80;;
21624;SDS011;10974;51.034;3.744;2023-01-19T09:49:55;17.37;;;7.93;;
21624;SDS011;10974;51.034;3.744;2023-01-19T09:52:23;13.80;;;7.83;;
21624;SDS011;10974;51.034;3.744;2023-01-19T09:54:53;14.57;;;8.30;;
21624;SDS011;10974;51.034;3.744;2023-01-19T09:57:20;18.17;;;7.77;;
21624;SDS011;10974;51.034;3.744;2023-01-19T09:59:46;15.00;;;7.90;;
21624;SDS011;10974;51.034;3.744;2023-01-19T10:15:17;15.13;;;7.73;;
21624;SDS011;10974;51.034;3.744;2023-01-19T10:18:27;14.90;;;7.37;;
21624;SDS011;10974;51.034;3.744;2023-01-19T10:20:35;14.17;;;7.80;;
21624;SDS011;10974;51.034;3.744;2023-01-19T10:23:04;16.83;;;8.13;;
21624;SDS011;10974;51.034;3.744;2023-01-19T10:25:41;14.17;;;8.10;;
21624;SDS011;10974;51.034;3.744;2023-01-19T10:28:07;15.80;;;7.83;;
21624;SDS011;10974;51.034;3.744;2023-01-19T10:30:33;16.73;;;7.63;;
21624;SDS011;10974;51.034;3.744;2023-01-19T10:32:59;16.17;;;7.90;;
21624;SDS011;10974;51.034;3.744;2023-01-19T10:35:25;20.40;;;7.90;;
21624;SDS011;10974;51.034;3.744;2023-01-19T10:37:53;17.20;;;8.07;;
21624;SDS011;10974;51.034;3.744;2023-01-19T10:42:52;15.40;;;8.23;;
21624;SDS011;10974;51.034;3.744;2023-01-19T10:45:20;15.90;;;8.33;;
21624;SDS011;10974;51.034;3.744;2023-01-19T10:47:48;16.03;;;8.77;;
21624;SDS011;10974;51.034;3.744;2023-01-19T10:50:25;16.90;;;8.20;;
21624;SDS011;10974;51.034;3.744;2023-01-19T10:52:52;14.73;;;7.83;;
21624;SDS011;10974;51.034;3.744;2023-01-19T10:55:26;18.80;;;8.30;;
21624;SDS011;10974;51.034;3.744;2023-01-19T10:57:53;17.87;;;9.00;;
21624;SDS011;10974;51.034;3.744;2023-01-19T11:00:40;17.17;;;9.43;;
21624;SDS011;10974;51.034;3.744;2023-01-19T11:03:21;19.13;;;9.43;;
21624;SDS011;10974;51.034;3.744;2023-01-19T11:05:47;18.60;;;9.63;;
21624;SDS011;10974;51.034;3.744;2023-01-19T11:08:20;16.73;;;9.77;;
21624;SDS011;10974;51.034;3.744;2023-01-19T11:10:51;15.63;;;9.60;;
21624;SDS011;10974;51.034;3.744;2023-01-19T11:13:17;18.57;;;10.20;;
21624;SDS011;10974;51.034;3.744;2023-01-19T11:15:46;18.43;;;10.03;;
21624;SDS011;10974;51.034;3.744;2023-01-19T11:18:27;15.93;;;10.20;;
21624;SDS011;10974;51.034;3.744;2023-01-19T11:20:55;18.73;;;10.87;;
21624;SDS011;10974;51.034;3.744;2023-01-19T11:23:30;16.33;;;10.43;;
21624;SDS011;10974;51.034;3.744;2023-01-19T11:25:58;19.37;;;11.40;;
21624;SDS011;10974;51.034;3.744;2023-01-19T11:33:41;15.03;;;9.63;;
21624;SDS011;10974;51.034;3.744;2023-01-19T11:36:14;16.43;;;10.50;;
21624;SDS011;10974;51.034;3.744;2023-01-19T11:38:42;16.27;;;10.20;;
21624;SDS011;10974;51.034;3.744;2023-01-19T11:41:13;14.87;;;10.00;;
21624;SDS011;10974;51.034;3.744;2023-01-19T11:43:40;14.30;;;9.73;;
21624;SDS011;10974;51.034;3.744;2023-01-19T11:46:08;14.73;;;9.90;;
21624;SDS011;10974;51.034;3.744;2023-01-19T11:51:26;11.40;;;8.70;;
21624;SDS011;10974;51.034;3.744;2023-01-19T11:53:54;13.03;;;9.20;;
21624;SDS011;10974;51.034;3.744;2023-01-19T11:56:22;16.13;;;9.57;;
21624;SDS011;10974;51.034;3.744;2023-01-19T11:58:49;16.23;;;9.53;;
21624;SDS011;10974;51.034;3.744;2023-01-19T12:01:26;15.20;;;9.60;;
21624;SDS011;10974;51.034;3.744;2023-01-19T12:06:23;13.60;;;9.83;;
21624;SDS011;10974;51.034;3.744;2023-01-19T12:11:48;21.70;;;9.67;;
21624;SDS011;10974;51.034;3.744;2023-01-19T12:14:20;14.73;;;9.47;;
21624;SDS011;10974;51.034;3.744;2023-01-19T12:16:49;19.17;;;10.10;;
21624;SDS011;10974;51.034;3.744;2023-01-19T12:19:17;14.80;;;7.93;;
21624;SDS011;10974;51.034;3.744;2023-01-19T12:21:43;19.13;;;9.27;;
21624;SDS011;10974;51.034;3.744;2023-01-19T12:24:17;13.67;;;8.77;;
21624;SDS011;10974;51.034;3.744;2023-01-19T12:29:17;18.30;;;9.33;;
21624;SDS011;10974;51.034;3.744;2023-01-19T12:31:44;14.20;;;8.00;;
21624;SDS011;10974;51.034;3.744;2023-01-19T12:36:49;17.20;;;8.17;;
21624;SDS011;10974;51.034;3.744;2023-01-19T12:39:19;13.00;;;8.37;;
21624;SDS011;10974;51.034;3.744;2023-01-19T12:41:45;13.47;;;8.97;;
21624;SDS011;10974;51.034;3.744;2023-01-19T12:46:40;11.60;;;7.87;;
21624;SDS011;10974;51.034;3.744;2023-01-19T12:51:36;13.03;;;9.73;;
21624;SDS011;10974;51.034;3.744;2023-01-19T12:54:03;12.77;;;8.37;;
21624;SDS011;10974;51.034;3.744;2023-01-19T12:56:32;14.70;;;9.00;;
21624;SDS011;10974;51.034;3.744;2023-01-19T12:58:59;14.20;;;9.30;;
21624;SDS011;10974;51.034;3.744;2023-01-19T13:01:25;14.60;;;8.47;;
21624;SDS011;10974;51.034;3.744;2023-01-19T13:14:36;12.43;;;9.20;;
21624;SDS011;10974;51.034;3.744;2023-01-19T13:17:03;12.50;;;9.40;;
21624;SDS011;10974;51.034;3.744;2023-01-19T13:19:40;18.33;;;9.93;;
21624;SDS011;10974;51.034;3.744;2023-01-19T13:25:11;15.30;;;8.60;;
21624;SDS011;10974;51.034;3.744;2023-01-19T13:27:37;16.30;;;9.10;;
21624;SDS011;10974;51.034;3.744;2023-01-19T13:30:11;15.87;;;8.73;;
21624;SDS011;10974;51.034;3.744;2023-01-19T13:32:40;16.47;;;9.40;;
21624;SDS011;10974;51.034;3.744;2023-01-19T13:35:10;13.93;;;8.93;;
21624;SDS011;10974;51.034;3.744;2023-01-19T13:37:38;15.10;;;8.30;;
21624;SDS011;10974;51.034;3.744;2023-01-19T13:40:21;17.93;;;9.00;;
21624;SDS011;10974;51.034;3.744;2023-01-19T13:42:48;13.03;;;9.03;;
21624;SDS011;10974;51.034;3.744;2023-01-19T13:45:16;15.27;;;8.97;;
21624;SDS011;10974;51.034;3.744;2023-01-19T13:47:46;15.73;;;8.20;;
21624;SDS011;10974;51.034;3.744;2023-01-19T13:50:20;17.30;;;8.37;;
21624;SDS011;10974;51.034;3.744;2023-01-19T13:52:46;13.27;;;8.63;;
21624;SDS011;10974;51.034;3.744;2023-01-19T13:55:18;13.07;;;8.43;;
21624;SDS011;10974;51.034;3.744;2023-01-19T13:57:46;13.43;;;8.97;;
21624;SDS011;10974;51.034;3.744;2023-01-19T14:00:22;15.10;;;8.67;;
21624;SDS011;10974;51.034;3.744;2023-01-19T14:02:58;15.53;;;9.30;;
21624;SDS011;10974;51.034;3.744;2023-01-19T14:10:40;16.53;;;10.07;;
21624;SDS011;10974;51.034;3.744;2023-01-19T14:13:14;18.47;;;10.37;;
21624;SDS011;10974;51.034;3.744;2023-01-19T14:15:40;15.10;;;8.93;;
21624;SDS011;10974;51.034;3.744;2023-01-19T14:18:27;16.83;;;9.43;;
21624;SDS011;10974;51.034;3.744;2023-01-19T14:28:52;12.60;;;8.50;;
21624;SDS011;10974;51.034;3.744;2023-01-19T14:31:19;17.00;;;9.97;;
21624;SDS011;10974;51.034;3.744;2023-01-19T14:33:46;18.43;;;9.73;;
21624;SDS011;10974;51.034;3.744;2023-01-19T14:38:44;14.17;;;9.97;;
21624;SDS011;10974;51.034;3.744;2023-01-19T14:41:11;12.33;;;8.50;;
21624;SDS011;10974;51.034;3.744;2023-01-19T14:43:43;15.63;;;8.93;;
21624;SDS011;10974;51.034;3.744;2023-01-19T14:46:16;13.63;;;8.57;;
21624;SDS011;10974;51.034;3.744;2023-01-19T14:48:46;12.63;;;7.80;;
21624;SDS011;10974;51.034;3.744;2023-01-19T14:51:17;15.30;;;8.50;;
21624;SDS011;10974;51.034;3.744;2023-01-19T14:53:48;13.20;;;8.40;;
21624;SDS011;10974;51.034;3.744;2023-01-19T14:56:24;15.20;;;9.50;;
21624;SDS011;10974;51.034;3.744;2023-01-19T14:58:51;14.17;;;9.40;;
21624;SDS011;10974;51.034;3.744;2023-01-19T15:01:17;20.43;;;9.00;;
21624;SDS011;10974;51.034;3.744;2023-01-19T15:03:43;16.13;;;8.93;;
21624;SDS011;10974;51.034;3.744;2023-01-19T15:06:12;13.83;;;10.23;;
21624;SDS011;10974;51.034;3.744;2023-01-19T15:08:39;16.90;;;9.33;;
21624;SDS011;10974;51.034;3.744;2023-01-19T15:11:08;16.13;;;9.83;;
21624;SDS011;10974;51.034;3.744;2023-01-19T15:13:34;18.00;;;10.60;;
21624;SDS011;10974;51.034;3.744;2023-01-19T15:16:03;19.17;;;9.40;;
21624;SDS011;10974;51.034;3.744;2023-01-19T15:18:29;18.47;;;10.83;;
21624;SDS011;10974;51.034;3.744;2023-01-19T15:20:55;18.20;;;10.57;;
21624;SDS011;10974;51.034;3.744;2023-01-19T15:23:27;16.33;;;9.80;;
21624;SDS011;10974;51.034;3.744;2023-01-19T15:25:57;15.10;;;10.00;;
21624;SDS011;10974;51.034;3.744;2023-01-19T15:28:23;12.77;;;9.30;;
21624;SDS011;10974;51.034;3.744;2023-01-19T15:30:49;19.20;;;9.60;;
21624;SDS011;10974;51.034;3.744;2023-01-19T15:33:21;17.30;;;9.73;;
21624;SDS011;10974;51.034;3.744;2023-01-19T15:35:48;16.23;;;10.13;;
21624;SDS011;10974;51.034;3.744;2023-01-19T15:38:14;16.20;;;10.00;;
21624;SDS011;10974;51.034;3.744;2023-01-19T15:40:40;15.00;;;9.10;;
21624;SDS011;10974;51.034;3.744;2023-01-19T15:43:08;16.97;;;8.93;;
21624;SDS011;10974;51.034;3.744;2023-01-19T15:45:35;16.87;;;10.50;;
21624;SDS011;10974;51.034;3.744;2023-01-19T15:48:06;13.80;;;9.67;;
21624;SDS011;10974;51.034;3.744;2023-01-19T15:50:32;16.27;;;9.50;;
21624;SDS011;10974;51.034;3.744;2023-01-19T15:53:00;18.80;;;10.23;;
21624;SDS011;10974;51.034;3.744;2023-01-19T15:55:26;16.10;;;9.40;;
21624;SDS011;10974;51.034;3.744;2023-01-19T15:57:52;67.83;;;11.23;;
21624;SDS011;10974;51.034;3.744;2023-01-19T16:00:22;15.80;;;9.80;;
21624;SDS011;10974;51.034;3.744;2023-01-19T16:02:48;14.17;;;9.30;;
21624;SDS011;10974;51.034;3.744;2023-01-19T16:05:16;17.30;;;9.80;;
21624;SDS011;10974;51.034;3.744;2023-01-19T16:07:42;16.00;;;10.23;;
21624;SDS011;10974;51.034;3.744;2023-01-19T16:10:08;15.23;;;9.20;;
21624;SDS011;10974;51.034;3.744;2023-01-19T16:12:34;17.00;;;10.30;;
21624;SDS011;10974;51.034;3.744;2023-01-19T16:15:00;12.53;;;9.00;;
21624;SDS011;10974;51.034;3.744;2023-01-19T16:17:26;18.90;;;9.20;;
21624;SDS011;10974;51.034;3.744;2023-01-19T16:19:53;20.07;;;9.73;;
21624;SDS011;10974;51.034;3.744;2023-01-19T16:22:19;19.07;;;10.60;;
21624;SDS011;10974;51.034;3.744;2023-01-19T16:24:45;15.40;;;10.20;;
21624;SDS011;10974;51.034;3.744;2023-01-19T16:27:11;16.97;;;10.77;;
21624;SDS011;10974;51.034;3.744;2023-01-19T16:29:37;135.53;;;15.27;;
21624;SDS011;10974;51.034;3.744;2023-01-19T16:32:03;13.90;;;11.00;;
21624;SDS011;10974;51.034;3.744;2023-01-19T16:34:29;16.27;;;11.63;;
21624;SDS011;10974;51.034;3.744;2023-01-19T16:36:55;15.90;;;11.77;;
21624;SDS011;10974;51.034;3.744;2023-01-19T16:39:21;21.27;;;12.30;;
21624;SDS011;10974;51.034;3.744;2023-01-19T16:41:47;19.50;;;12.13;;
21624;SDS011;10974;51.034;3.744;2023-01-19T16:44:14;21.87;;;11.97;;
21624;SDS011;10974;51.034;3.744;2023-01-19T16:46:41;19.93;;;12.50;;
21624;SDS011;10974;51.034;3.744;2023-01-19T16:49:21;16.87;;;11.30;;
21624;SDS011;10974;51.034;3.744;2023-01-19T16:51:48;19.00;;;12.10;;
21624;SDS011;10974;51.034;3.744;2023-01-19T16:54:18;17.10;;;12.57;;
21624;SDS011;10974;51.034;3.744;2023-01-19T16:56:44;18.37;;;12.07;;
21624;SDS011;10974;51.034;3.744;2023-01-19T16:59:12;15.80;;;12.23;;
21624;SDS011;10974;51.034;3.744;2023-01-19T17:01:38;19.60;;;13.03;;
21624;SDS011;10974;51.034;3.744;2023-01-19T17:04:04;19.93;;;12.63;;
21624;SDS011;10974;51.034;3.744;2023-01-19T17:06:30;16.90;;;12.03;;
21624;SDS011;10974;51.034;3.744;2023-01-19T17:08:57;18.80;;;13.67;;
21624;SDS011;10974;51.034;3.744;2023-01-19T17:11:27;21.90;;;13.13;;
21624;SDS011;10974;51.034;3.744;2023-01-19T17:14:04;22.67;;;12.97;;
21624;SDS011;10974;51.034;3.744;2023-01-19T17:16:31;19.10;;;13.60;;
21624;SDS011;10974;51.034;3.744;2023-01-19T17:18:58;17.83;;;12.80;;
21624;SDS011;10974;51.034;3.744;2023-01-19T17:21:24;18.30;;;12.67;;
21624;SDS011;10974;51.034;3.744;2023-01-19T17:23:51;19.07;;;13.03;;
21624;SDS011;10974;51.034;3.744;2023-01-19T17:26:18;19.17;;;13.00;;
21624;SDS011;10974;51.034;3.744;2023-01-19T17:28:44;22.97;;;14.90;;
21624;SDS011;10974;51.034;3.744;2023-01-19T17:31:20;19.40;;;13.47;;
21624;SDS011;10974;51.034;3.744;2023-01-19T17:33:47;20.33;;;13.70;;
21624;SDS011;10974;51.034;3.744;2023-01-19T17:36:14;22.20;;;13.73;;
21624;SDS011;10974;51.034;3.744;2023-01-19T17:38:41;20.37;;;14.37;;
21624;SDS011;10974;51.034;3.744;2023-01-19T17:41:49;21.07;;;15.30;;
21624;SDS011;10974;51.034;3.744;2023-01-19T17:43:57;20.80;;;13.67;;
21624;SDS011;10974;51.034;3.744;2023-01-19T17:46:24;20.50;;;13.67;;
21624;SDS011;10974;51.034;3.744;2023-01-19T17:48:55;20.50;;;14.37;;
21624;SDS011;10974;51.034;3.744;2023-01-19T17:51:22;22.53;;;14.83;;
21624;SDS011;10974;51.034;3.744;2023-01-19T17:53:48;23.03;;;14.97;;
21624;SDS011;10974;51.034;3.744;2023-01-19T17:56:15;22.40;;;14.30;;
21624;SDS011;10974;51.034;3.744;2023-01-19T17:58:41;23.43;;;14.97;;
21624;SDS011;10974;51.034;3.744;2023-01-19T18:01:08;20.53;;;14.53;;
21624;SDS011;10974;51.034;3.744;2023-01-19T18:03:35;24.40;;;17.83;;
21624;SDS011;10974;51.034;3.744;2023-01-19T18:06:01;25.27;;;17.00;;
21624;SDS011;10974;51.034;3.744;2023-01-19T18:08:27;20.40;;;15.20;;
21624;SDS011;10974;51.034;3.744;2023-01-19T18:10:53;24.00;;;16.47;;
21624;SDS011;10974;51.034;3.744;2023-01-19T18:13:20;24.27;;;15.23;;
21624;SDS011;10974;51.034;3.744;2023-01-19T18:15:46;21.10;;;15.10;;
21624;SDS011;10974;51.034;3.744;2023-01-19T18:18:12;24.80;;;16.67;;
21624;SDS011;10974;51.034;3.744;2023-01-19T18:20:38;23.03;;;16.00;;
21624;SDS011;10974;51.034;3.744;2023-01-19T18:23:07;21.63;;;15.63;;
21624;SDS011;10974;51.034;3.744;2023-01-19T18:25:33;22.50;;;14.80;;
21624;SDS011;10974;51.034;3.744;2023-01-19T18:27:59;22.57;;;15.80;;
21624;SDS011;10974;51.034;3.744;2023-01-19T18:30:26;25.57;;;16.30;;
21624;SDS011;10974;51.034;3.744;2023-01-19T18:32:52;22.53;;;15.63;;
21624;SDS011;10974;51.034;3.744;2023-01-19T18:35:18;20.30;;;14.80;;
21624;SDS011;10974;51.034;3.744;2023-01-19T18:37:44;20.53;;;15.33;;
21624;SDS011;10974;51.034;3.744;2023-01-19T18:40:10;23.40;;;15.90;;
21624;SDS011;10974;51.034;3.744;2023-01-19T18:42:36;21.80;;;15.87;;
21624;SDS011;10974;51.034;3.744;2023-01-19T18:45:02;24.60;;;15.40;;
21624;SDS011;10974;51.034;3.744;2023-01-19T18:47:28;21.90;;;15.80;;
21624;SDS011;10974;51.034;3.744;2023-01-19T18:49:57;21.00;;;14.90;;
21624;SDS011;10974;51.034;3.744;2023-01-19T18:52:23;21.80;;;15.80;;
21624;SDS011;10974;51.034;3.744;2023-01-19T18:54:49;21.93;;;15.67;;
21624;SDS011;10974;51.034;3.744;2023-01-19T18:57:15;22.73;;;16.33;;
21624;SDS011;10974;51.034;3.744;2023-01-19T18:59:42;23.77;;;16.40;;
21624;SDS011;10974;51.034;3.744;2023-01-19T19:02:09;19.40;;;14.30;;
21624;SDS011;10974;51.034;3.744;2023-01-19T19:04:35;22.87;;;15.97;;
21624;SDS011;10974;51.034;3.744;2023-01-19T19:07:01;23.00;;;15.73;;
21624;SDS011;10974;51.034;3.744;2023-01-19T19:09:28;23.63;;;16.33;;
21624;SDS011;10974;51.034;3.744;2023-01-19T19:11:54;20.07;;;14.57;;
21624;SDS011;10974;51.034;3.744;2023-01-19T19:14:20;21.37;;;15.60;;
21624;SDS011;10974;51.034;3.744;2023-01-19T19:16:46;24.00;;;16.57;;
21624;SDS011;10974;51.034;3.744;2023-01-19T19:19:12;23.70;;;16.10;;
21624;SDS011;10974;51.034;3.744;2023-01-19T19:21:39;20.23;;;15.10;;
21624;SDS011;10974;51.034;3.744;2023-01-19T19:24:06;25.17;;;17.63;;
21624;SDS011;10974;51.034;3.744;2023-01-19T19:26:32;26.97;;;17.47;;
21624;SDS011;10974;51.034;3.744;2023-01-19T19:28:59;25.17;;;17.07;;
21624;SDS011;10974;51.034;3.744;2023-01-19T19:31:25;22.90;;;16.00;;
21624;SDS011;10974;51.034;3.744;2023-01-19T19:33:54;23.53;;;15.90;;
21624;SDS011;10974;51.034;3.744;2023-01-19T19:36:20;25.00;;;17.10;;
21624;SDS011;10974;51.034;3.744;2023-01-19T19:38:47;28.17;;;20.27;;
21624;SDS011;10974;51.034;3.744;2023-01-19T19:41:15;27.03;;;17.30;;
21624;SDS011;10974;51.034;3.744;2023-01-19T19:43:41;26.80;;;17.60;;
21624;SDS011;10974;51.034;3.744;2023-01-19T19:46:10;24.10;;;17.03;;
21624;SDS011;10974;51.034;3.744;2023-01-19T19:48:36;28.27;;;19.37;;
21624;SDS011;10974;51.034;3.744;2023-01-19T19:51:03;28.23;;;17.97;;
21624;SDS011;10974;51.034;3.744;2023-01-19T19:53:29;27.10;;;18.37;;
21624;SDS011;10974;51.034;3.744;2023-01-19T19:55:56;27.10;;;17.30;;
21624;SDS011;10974;51.034;3.744;2023-01-19T19:58:23;30.00;;;19.37;;
21624;SDS011;10974;51.034;3.744;2023-01-19T20:00:49;29.80;;;18.97;;